sensor_id;sensor_type;location;lat;lon;timestamp;pressure;altitude;pressure_sealevel;temperature;humidity
15489;BME280;7846;48.830;9.116;2023-02-08T00:01:08;99829.03;;;1.71;54.49
15489;BME280;7846;48.830;9.116;2023-02-08T00:03:33;99822.97;;;1.70;54.33
15489;BME280;7846;48.830;9.116;2023-02-08T00:05:59;99817.78;;;1.70;53.90
15489;BME280;7846;48.830;9.116;2023-02-08T00:08:24;99817.06;;;1.67;54.10
15489;BME280;7846;48.830;9.116;2023-02-08T00:10:50;99805.50;;;1.76;53.66
15489;BME280;7846;48.830;9.116;2023-02-08T00:13:15;99803.75;;;1.76;53.88
15489;BME280;7846;48.830;9.116;2023-02-08T00:15:43;99807.53;;;1.67;53.74
15489;BME280;7846;48.830;9.116;2023-02-08T00:18:09;99807.31;;;1.74;53.61
15489;BME280;7846;48.830;9.116;2023-02-08T00:20:34;99797.94;;;1.69;53.80
15489;BME280;7846;48.830;9.116;2023-02-08T00:23:01;99797.16;;;1.67;53.59
15489;BME280;7846;48.830;9.116;2023-02-08T00:25:27;99786.75;;;1.67;53.90
15489;BME280;7846;48.830;9.116;2023-02-08T00:27:52;99784.28;;;1.64;53.81
15489;BME280;7846;48.830;9.116;2023-02-08T00:30:18;99790.41;;;1.62;53.57
15489;BME280;7846;48.830;9.116;2023-02-08T00:32:44;99786.06;;;1.62;53.50
15489;BME280;7846;48.830;9.116;2023-02-08T00:35:09;99785.31;;;1.59;53.51
15489;BME280;7846;48.830;9.116;2023-02-08T00:37:34;99783.69;;;1.56;53.69
15489;BME280;7846;48.830;9.116;2023-02-08T00:40:01;99781.34;;;1.49;53.54
15489;BME280;7846;48.830;9.116;2023-02-08T00:42:27;99784.81;;;1.48;53.94
15489;BME280;7846;48.830;9.116;2023-02-08T00:44:53;99786.75;;;1.42;53.65
15489;BME280;7846;48.830;9.116;2023-02-08T00:47:18;99793.94;;;1.34;53.99
15489;BME280;7846;48.830;9.116;2023-02-08T00:49:44;99792.69;;;1.46;53.41
15489;BME280;7846;48.830;9.116;2023-02-08T00:52:10;99789.88;;;1.52;53.69
15489;BME280;7846;48.830;9.116;2023-02-08T00:54:36;99786.53;;;1.49;53.70
15489;BME280;7846;48.830;9.116;2023-02-08T00:57:02;99792.72;;;1.44;53.60
15489;BME280;7846;48.830;9.116;2023-02-08T00:59:27;99781.44;;;1.45;53.52
15489;BME280;7846;48.830;9.116;2023-02-08T01:01:52;99804.72;;;1.49;53.33
15489;BME280;7846;48.830;9.116;2023-02-08T01:04:18;99798.03;;;1.41;53.51
15489;BME280;7846;48.830;9.116;2023-02-08T01:06:43;99807.41;;;1.45;53.06
15489;BME280;7846;48.830;9.116;2023-02-08T01:09:08;99799.97;;;1.35;53.89
15489;BME280;7846;48.830;9.116;2023-02-08T01:11:34;99804.91;;;1.42;53.87
15489;BME280;7846;48.830;9.116;2023-02-08T01:13:59;99805.84;;;1.40;53.52
15489;BME280;7846;48.830;9.116;2023-02-08T01:16:28;99808.16;;;1.49;53.27
15489;BME280;7846;48.830;9.116;2023-02-08T01:18:57;99796.22;;;1.43;53.68
15489;BME280;7846;48.830;9.116;2023-02-08T01:21:27;99799.53;;;1.49;53.81
15489;BME280;7846;48.830;9.116;2023-02-08T01:23:53;99805.91;;;1.38;53.88
15489;BME280;7846;48.830;9.116;2023-02-08T01:26:20;99808.41;;;1.41;53.96
15489;BME280;7846;48.830;9.116;2023-02-08T01:28:46;99798.22;;;1.35;53.94
15489;BME280;7846;48.830;9.116;2023-02-08T01:31:15;99797.97;;;1.43;53.26
15489;BME280;7846;48.830;9.116;2023-02-08T01:33:40;99801.00;;;1.29;53.96
15489;BME280;7846;48.830;9.116;2023-02-08T01:36:07;99793.84;;;1.37;53.63
15489;BME280;7846;48.830;9.116;2023-02-08T01:38:34;99793.88;;;1.36;53.77
15489;BME280;7846;48.830;9.116;2023-02-08T01:41:00;99788.28;;;1.21;53.54
15489;BME280;7846;48.830;9.116;2023-02-08T01:43:29;99787.34;;;1.24;53.54
15489;BME280;7846;48.830;9.116;2023-02-08T01:45:55;99786.91;;;1.11;54.25
15489;BME280;7846;48.830;9.116;2023-02-08T01:48:32;99789.50;;;1.11;54.40
15489;BME280;7846;48.830;9.116;2023-02-08T01:51:08;99780.72;;;1.15;54.90
15489;BME280;7846;48.830;9.116;2023-02-08T01:53:35;99769.97;;;1.00;54.62
15489;BME280;7846;48.830;9.116;2023-02-08T01:56:04;99773.41;;;1.00;55.38
15489;BME280;7846;48.830;9.116;2023-02-08T01:58:34;99775.66;;;0.84;55.83
15489;BME280;7846;48.830;9.116;2023-02-08T02:01:01;99772.94;;;0.59;56.59
15489;BME280;7846;48.830;9.116;2023-02-08T02:03:27;99776.66;;;0.22;57.79
15489;BME280;7846;48.830;9.116;2023-02-08T02:06:00;99766.75;;;0.65;57.14
15489;BME280;7846;48.830;9.116;2023-02-08T02:08:27;99774.38;;;0.69;56.74
15489;BME280;7846;48.830;9.116;2023-02-08T02:10:52;99760.47;;;0.72;56.03
15489;BME280;7846;48.830;9.116;2023-02-08T02:13:23;99766.56;;;0.71;56.53
15489;BME280;7846;48.830;9.116;2023-02-08T02:15:49;99758.31;;;0.58;56.66
15489;BME280;7846;48.830;9.116;2023-02-08T02:18:25;99754.56;;;0.68;57.39
15489;BME280;7846;48.830;9.116;2023-02-08T02:21:18;99756.44;;;0.63;57.51
15489;BME280;7846;48.830;9.116;2023-02-08T02:24:17;99753.09;;;0.60;56.99
15489;BME280;7846;48.830;9.116;2023-02-08T02:27:08;99750.44;;;0.61;57.44
15489;BME280;7846;48.830;9.116;2023-02-08T02:30:08;99749.47;;;0.37;59.03
15489;BME280;7846;48.830;9.116;2023-02-08T02:32:51;99740.66;;;0.43;57.69
15489;BME280;7846;48.830;9.116;2023-02-08T02:40:41;99744.69;;;0.52;58.89
15489;BME280;7846;48.830;9.116;2023-02-08T02:43:15;99746.97;;;0.03;59.57
15489;BME280;7846;48.830;9.116;2023-02-08T02:46:11;99750.34;;;0.36;59.68
15489;BME280;7846;48.830;9.116;2023-02-08T02:48:47;99746.19;;;0.31;59.31
15489;BME280;7846;48.830;9.116;2023-02-08T02:51:18;99741.53;;;0.42;58.95
15489;BME280;7846;48.830;9.116;2023-02-08T02:53:51;99742.38;;;0.42;58.95
15489;BME280;7846;48.830;9.116;2023-02-08T02:56:22;99739.72;;;0.45;58.53
15489;BME280;7846;48.830;9.116;2023-02-08T02:58:49;99747.03;;;0.31;58.90
15489;BME280;7846;48.830;9.116;2023-02-08T03:01:21;99746.00;;;0.37;59.23
15489;BME280;7846;48.830;9.116;2023-02-08T03:03:50;99748.25;;;0.19;58.89
15489;BME280;7846;48.830;9.116;2023-02-08T03:06:25;99747.19;;;0.27;59.34
15489;BME280;7846;48.830;9.116;2023-02-08T03:09:13;99749.31;;;0.12;59.35
15489;BME280;7846;48.830;9.116;2023-02-08T03:11:55;99747.28;;;0.22;59.04
15489;BME280;7846;48.830;9.116;2023-02-08T03:14:33;99751.28;;;0.34;58.94
15489;BME280;7846;48.830;9.116;2023-02-08T03:17:10;99746.19;;;0.31;58.46
15489;BME280;7846;48.830;9.116;2023-02-08T03:22:41;99751.63;;;0.21;59.36
15489;BME280;7846;48.830;9.116;2023-02-08T03:25:22;99748.13;;;0.24;58.75
15489;BME280;7846;48.830;9.116;2023-02-08T03:27:58;99754.28;;;0.20;59.29
15489;BME280;7846;48.830;9.116;2023-02-08T03:30:40;99752.53;;;0.20;59.13
15489;BME280;7846;48.830;9.116;2023-02-08T03:33:21;99749.25;;;0.15;58.78
15489;BME280;7846;48.830;9.116;2023-02-08T03:36:02;99750.31;;;0.08;59.20
15489;BME280;7846;48.830;9.116;2023-02-08T03:38:39;99751.06;;;0.12;59.45
15489;BME280;7846;48.830;9.116;2023-02-08T03:41:08;99752.44;;;-0.08;59.88
15489;BME280;7846;48.830;9.116;2023-02-08T03:43:38;99746.50;;;-0.11;59.99
15489;BME280;7846;48.830;9.116;2023-02-08T03:46:12;99753.28;;;-0.06;60.21
15489;BME280;7846;48.830;9.116;2023-02-08T03:48:45;99757.34;;;0.03;59.83
15489;BME280;7846;48.830;9.116;2023-02-08T03:51:14;99753.88;;;0.04;59.50
15489;BME280;7846;48.830;9.116;2023-02-08T03:53:41;99750.38;;;0.05;59.89
15489;BME280;7846;48.830;9.116;2023-02-08T03:56:17;99746.13;;;0.03;58.93
15489;BME280;7846;48.830;9.116;2023-02-08T03:58:58;99742.59;;;-0.26;59.67
15489;BME280;7846;48.830;9.116;2023-02-08T04:01:29;99749.91;;;-0.09;59.95
15489;BME280;7846;48.830;9.116;2023-02-08T04:03:56;99748.47;;;-0.19;59.44
15489;BME280;7846;48.830;9.116;2023-02-08T04:06:22;99749.88;;;-0.39;60.17
15489;BME280;7846;48.830;9.116;2023-02-08T04:08:48;99755.88;;;-0.38;59.95
15489;BME280;7846;48.830;9.116;2023-02-08T04:11:14;99749.66;;;-0.31;59.72
15489;BME280;7846;48.830;9.116;2023-02-08T04:13:40;99742.94;;;-0.38;59.44
15489;BME280;7846;48.830;9.116;2023-02-08T04:16:10;99746.22;;;-0.32;59.68
15489;BME280;7846;48.830;9.116;2023-02-08T04:18:36;99740.16;;;-0.31;59.45
15489;BME280;7846;48.830;9.116;2023-02-08T04:21:03;99742.03;;;-0.36;59.71
15489;BME280;7846;48.830;9.116;2023-02-08T04:23:28;99742.88;;;-0.35;60.35
15489;BME280;7846;48.830;9.116;2023-02-08T04:25:54;99741.97;;;-0.34;59.50
15489;BME280;7846;48.830;9.116;2023-02-08T04:28:20;99736.94;;;-0.39;60.06
15489;BME280;7846;48.830;9.116;2023-02-08T04:30:46;99738.69;;;-0.41;60.18
15489;BME280;7846;48.830;9.116;2023-02-08T04:33:12;99742.94;;;-0.38;59.04
15489;BME280;7846;48.830;9.116;2023-02-08T04:35:41;99736.13;;;-0.41;60.32
15489;BME280;7846;48.830;9.116;2023-02-08T04:38:07;99735.53;;;-0.51;59.60
15489;BME280;7846;48.830;9.116;2023-02-08T04:40:32;99737.13;;;-0.46;59.86
15489;BME280;7846;48.830;9.116;2023-02-08T04:42:57;99736.28;;;-0.47;59.81
15489;BME280;7846;48.830;9.116;2023-02-08T04:45:24;99737.56;;;-0.62;60.20
15489;BME280;7846;48.830;9.116;2023-02-08T04:47:52;99735.94;;;-0.66;60.50
15489;BME280;7846;48.830;9.116;2023-02-08T04:50:18;99731.47;;;-0.61;60.79
15489;BME280;7846;48.830;9.116;2023-02-08T04:52:44;99733.06;;;-0.55;60.22
15489;BME280;7846;48.830;9.116;2023-02-08T04:55:10;99734.84;;;-0.57;60.17
15489;BME280;7846;48.830;9.116;2023-02-08T04:57:37;99727.97;;;-0.58;60.52
15489;BME280;7846;48.830;9.116;2023-02-08T05:00:03;99726.84;;;-0.81;61.61
15489;BME280;7846;48.830;9.116;2023-02-08T05:02:29;99726.22;;;-0.58;59.88
15489;BME280;7846;48.830;9.116;2023-02-08T05:04:54;99716.69;;;-0.56;59.91
15489;BME280;7846;48.830;9.116;2023-02-08T05:07:20;99720.38;;;-0.64;60.39
15489;BME280;7846;48.830;9.116;2023-02-08T05:09:47;99715.28;;;-0.67;60.47
15489;BME280;7846;48.830;9.116;2023-02-08T05:12:13;99715.41;;;-0.72;60.57
15489;BME280;7846;48.830;9.116;2023-02-08T05:14:41;99710.34;;;-0.44;60.48
15489;BME280;7846;48.830;9.116;2023-02-08T05:17:07;99715.88;;;-0.90;60.16
15489;BME280;7846;48.830;9.116;2023-02-08T05:19:32;99713.66;;;-0.71;60.49
15489;BME280;7846;48.830;9.116;2023-02-08T05:21:58;99719.66;;;-0.71;59.45
15489;BME280;7846;48.830;9.116;2023-02-08T05:24:23;99716.25;;;-0.71;60.28
15489;BME280;7846;48.830;9.116;2023-02-08T05:26:48;99718.22;;;-0.81;60.50
15489;BME280;7846;48.830;9.116;2023-02-08T05:29:14;99717.28;;;-0.79;60.13
15489;BME280;7846;48.830;9.116;2023-02-08T05:31:40;99718.81;;;-0.71;60.22
15489;BME280;7846;48.830;9.116;2023-02-08T05:34:06;99721.41;;;-0.71;60.05
15489;BME280;7846;48.830;9.116;2023-02-08T05:36:31;99718.03;;;-0.74;60.19
15489;BME280;7846;48.830;9.116;2023-02-08T05:38:56;99726.28;;;-0.93;59.99
15489;BME280;7846;48.830;9.116;2023-02-08T05:41:23;99719.88;;;-0.79;60.83
15489;BME280;7846;48.830;9.116;2023-02-08T05:43:48;99719.78;;;-0.74;59.45
15489;BME280;7846;48.830;9.116;2023-02-08T05:46:14;99718.13;;;-0.78;60.47
15489;BME280;7846;48.830;9.116;2023-02-08T05:48:39;99723.34;;;-0.80;59.53
15489;BME280;7846;48.830;9.116;2023-02-08T05:51:05;99722.66;;;-0.86;59.56
15489;BME280;7846;48.830;9.116;2023-02-08T05:53:30;99723.53;;;-0.87;60.48
15489;BME280;7846;48.830;9.116;2023-02-08T05:55:57;99728.59;;;-0.83;60.24
15489;BME280;7846;48.830;9.116;2023-02-08T05:58:23;99726.06;;;-0.84;60.30
15489;BME280;7846;48.830;9.116;2023-02-08T06:00:49;99729.56;;;-0.87;59.84
15489;BME280;7846;48.830;9.116;2023-02-08T06:03:14;99733.94;;;-0.89;60.73
15489;BME280;7846;48.830;9.116;2023-02-08T06:05:40;99730.47;;;-0.88;60.22
15489;BME280;7846;48.830;9.116;2023-02-08T06:08:06;99724.53;;;-0.93;59.97
15489;BME280;7846;48.830;9.116;2023-02-08T06:10:31;99728.94;;;-0.97;60.09
15489;BME280;7846;48.830;9.116;2023-02-08T06:12:58;99733.94;;;-0.89;60.66
15489;BME280;7846;48.830;9.116;2023-02-08T06:15:23;99726.00;;;-0.83;60.54
15489;BME280;7846;48.830;9.116;2023-02-08T06:17:49;99731.22;;;-0.84;60.13
15489;BME280;7846;48.830;9.116;2023-02-08T06:20:14;99741.69;;;-0.89;59.55
15489;BME280;7846;48.830;9.116;2023-02-08T06:22:40;99743.53;;;-0.94;60.00
15489;BME280;7846;48.830;9.116;2023-02-08T06:25:05;99742.56;;;-0.90;60.65
15489;BME280;7846;48.830;9.116;2023-02-08T06:27:31;99748.63;;;-0.91;60.12
15489;BME280;7846;48.830;9.116;2023-02-08T06:29:56;99738.34;;;-0.92;60.76
15489;BME280;7846;48.830;9.116;2023-02-08T06:32:21;99745.22;;;-0.93;60.62
15489;BME280;7846;48.830;9.116;2023-02-08T06:34:47;99734.81;;;-0.90;60.74
15489;BME280;7846;48.830;9.116;2023-02-08T06:37:15;99736.00;;;-1.03;60.76
15489;BME280;7846;48.830;9.116;2023-02-08T06:39:41;99741.31;;;-1.09;62.20
15489;BME280;7846;48.830;9.116;2023-02-08T06:42:07;99739.69;;;-0.78;60.49
15489;BME280;7846;48.830;9.116;2023-02-08T06:44:32;99733.63;;;-0.77;60.62
15489;BME280;7846;48.830;9.116;2023-02-08T06:46:58;99742.56;;;-0.90;60.03
15489;BME280;7846;48.830;9.116;2023-02-08T06:49:24;99739.75;;;-0.81;59.92
15489;BME280;7846;48.830;9.116;2023-02-08T06:51:49;99739.25;;;-0.95;61.29
15489;BME280;7846;48.830;9.116;2023-02-08T06:54:15;99738.97;;;-0.84;60.35
15489;BME280;7846;48.830;9.116;2023-02-08T06:56:40;99737.88;;;-0.76;60.24
15489;BME280;7846;48.830;9.116;2023-02-08T06:59:06;99742.41;;;-0.84;60.49
15489;BME280;7846;48.830;9.116;2023-02-08T07:01:32;99746.88;;;-0.89;61.13
15489;BME280;7846;48.830;9.116;2023-02-08T07:03:57;99750.94;;;-0.80;61.34
15489;BME280;7846;48.830;9.116;2023-02-08T07:06:23;99748.88;;;-0.67;60.84
15489;BME280;7846;48.830;9.116;2023-02-08T07:08:48;99747.81;;;-0.59;60.54
15489;BME280;7846;48.830;9.116;2023-02-08T07:11:16;99754.97;;;-0.37;59.57
15489;BME280;7846;48.830;9.116;2023-02-08T07:13:45;99755.03;;;-0.39;59.92
15489;BME280;7846;48.830;9.116;2023-02-08T07:16:11;99757.56;;;-0.37;59.62
15489;BME280;7846;48.830;9.116;2023-02-08T07:18:37;99757.34;;;-0.28;59.20
15489;BME280;7846;48.830;9.116;2023-02-08T07:21:03;99761.25;;;-0.13;58.79
15489;BME280;7846;48.830;9.116;2023-02-08T07:23:28;99764.13;;;-0.24;59.70
15489;BME280;7846;48.830;9.116;2023-02-08T07:26:04;99756.25;;;0.12;59.25
15489;BME280;7846;48.830;9.116;2023-02-08T07:28:31;99759.50;;;-0.13;59.47
15489;BME280;7846;48.830;9.116;2023-02-08T07:30:56;99762.03;;;-0.11;59.84
15489;BME280;7846;48.830;9.116;2023-02-08T07:33:23;99767.38;;;0.15;59.38
15489;BME280;7846;48.830;9.116;2023-02-08T07:35:48;99765.34;;;0.25;59.14
15489;BME280;7846;48.830;9.116;2023-02-08T07:38:14;99763.56;;;0.27;58.19
15489;BME280;7846;48.830;9.116;2023-02-08T07:40:39;99769.94;;;0.45;58.65
15489;BME280;7846;48.830;9.116;2023-02-08T07:43:06;99758.41;;;0.55;58.69
15489;BME280;7846;48.830;9.116;2023-02-08T07:45:31;99757.81;;;0.75;58.20
15489;BME280;7846;48.830;9.116;2023-02-08T07:47:58;99755.22;;;0.75;57.81
15489;BME280;7846;48.830;9.116;2023-02-08T07:50:23;99769.00;;;0.76;58.36
15489;BME280;7846;48.830;9.116;2023-02-08T07:52:49;99755.47;;;0.94;57.96
15489;BME280;7846;48.830;9.116;2023-02-08T07:55:15;99756.16;;;1.26;57.37
15489;BME280;7846;48.830;9.116;2023-02-08T07:57:46;99758.69;;;1.54;57.03
15489;BME280;7846;48.830;9.116;2023-02-08T08:00:13;99751.06;;;1.49;56.58
15489;BME280;7846;48.830;9.116;2023-02-08T08:02:39;99746.13;;;1.66;56.56
15489;BME280;7846;48.830;9.116;2023-02-08T08:05:05;99738.78;;;1.78;56.29
15489;BME280;7846;48.830;9.116;2023-02-08T08:07:30;99743.78;;;1.84;56.61
15489;BME280;7846;48.830;9.116;2023-02-08T08:09:56;99740.41;;;1.82;56.48
15489;BME280;7846;48.830;9.116;2023-02-08T08:12:21;99746.00;;;1.94;55.63
15489;BME280;7846;48.830;9.116;2023-02-08T08:14:48;99757.63;;;2.31;55.42
15489;BME280;7846;48.830;9.116;2023-02-08T08:17:14;99749.81;;;2.55;55.22
15489;BME280;7846;48.830;9.116;2023-02-08T08:19:39;99745.28;;;2.60;54.57
15489;BME280;7846;48.830;9.116;2023-02-08T08:22:05;99740.81;;;2.63;54.74
15489;BME280;7846;48.830;9.116;2023-02-08T08:24:30;99746.91;;;2.62;54.19
15489;BME280;7846;48.830;9.116;2023-02-08T08:27:00;99747.94;;;2.58;53.77
15489;BME280;7846;48.830;9.116;2023-02-08T08:29:25;99745.25;;;3.04;53.75
15489;BME280;7846;48.830;9.116;2023-02-08T08:31:51;99746.66;;;3.33;52.93
15489;BME280;7846;48.830;9.116;2023-02-08T08:34:16;99749.28;;;3.53;52.49
15489;BME280;7846;48.830;9.116;2023-02-08T08:36:42;99756.66;;;3.01;50.53
15489;BME280;7846;48.830;9.116;2023-02-08T08:39:07;99754.88;;;3.44;51.06
15489;BME280;7846;48.830;9.116;2023-02-08T08:41:32;99744.19;;;3.71;50.94
15489;BME280;7846;48.830;9.116;2023-02-08T08:43:58;99750.66;;;3.82;49.47
15489;BME280;7846;48.830;9.116;2023-02-08T08:46:24;99739.56;;;3.77;48.70
15489;BME280;7846;48.830;9.116;2023-02-08T08:48:50;99739.88;;;3.90;48.70
15489;BME280;7846;48.830;9.116;2023-02-08T08:51:16;99739.84;;;4.29;49.20
15489;BME280;7846;48.830;9.116;2023-02-08T08:53:42;99740.53;;;4.52;48.68
15489;BME280;7846;48.830;9.116;2023-02-08T08:56:09;99730.53;;;4.61;47.39
15489;BME280;7846;48.830;9.116;2023-02-08T08:58:35;99729.53;;;4.26;47.19
15489;BME280;7846;48.830;9.116;2023-02-08T09:01:00;99728.06;;;4.58;46.24
15489;BME280;7846;48.830;9.116;2023-02-08T09:03:26;99721.50;;;4.69;45.87
15489;BME280;7846;48.830;9.116;2023-02-08T09:05:52;99731.38;;;4.98;45.05
15489;BME280;7846;48.830;9.116;2023-02-08T09:08:17;99728.72;;;4.64;44.61
15489;BME280;7846;48.830;9.116;2023-02-08T09:10:43;99727.09;;;4.61;45.05
15489;BME280;7846;48.830;9.116;2023-02-08T09:13:09;99717.91;;;4.71;44.68
15489;BME280;7846;48.830;9.116;2023-02-08T09:15:37;99728.50;;;4.85;43.74
15489;BME280;7846;48.830;9.116;2023-02-08T09:18:03;99721.94;;;5.13;43.57
15489;BME280;7846;48.830;9.116;2023-02-08T09:20:28;99726.84;;;5.02;43.42
15489;BME280;7846;48.830;9.116;2023-02-08T09:22:55;99724.88;;;5.24;43.88
15489;BME280;7846;48.830;9.116;2023-02-08T09:25:21;99715.44;;;4.68;42.96
15489;BME280;7846;48.830;9.116;2023-02-08T09:27:46;99712.97;;;5.19;43.59
15489;BME280;7846;48.830;9.116;2023-02-08T09:30:12;99709.75;;;5.14;42.78
15489;BME280;7846;48.830;9.116;2023-02-08T09:32:37;99717.81;;;5.44;42.17
15489;BME280;7846;48.830;9.116;2023-02-08T09:35:05;99719.97;;;5.36;42.48
15489;BME280;7846;48.830;9.116;2023-02-08T09:37:30;99718.22;;;5.69;43.08
15489;BME280;7846;48.830;9.116;2023-02-08T09:39:56;99716.00;;;5.79;42.09
15489;BME280;7846;48.830;9.116;2023-02-08T09:42:29;99719.69;;;5.75;42.45
15489;BME280;7846;48.830;9.116;2023-02-08T09:47:33;99721.88;;;5.49;42.30
15489;BME280;7846;48.830;9.116;2023-02-08T09:50:12;99720.94;;;5.50;42.60
15489;BME280;7846;48.830;9.116;2023-02-08T09:52:54;99712.56;;;5.78;41.92
15489;BME280;7846;48.830;9.116;2023-02-08T09:55:31;99724.28;;;5.87;41.52
15489;BME280;7846;48.830;9.116;2023-02-08T09:58:02;99715.50;;;6.05;41.73
15489;BME280;7846;48.830;9.116;2023-02-08T10:00:39;99712.88;;;6.05;42.15
15489;BME280;7846;48.830;9.116;2023-02-08T10:03:20;99710.28;;;6.05;41.50
15489;BME280;7846;48.830;9.116;2023-02-08T10:05:48;99709.69;;;6.16;41.34
15489;BME280;7846;48.830;9.116;2023-02-08T10:08:13;99705.31;;;6.48;40.74
15489;BME280;7846;48.830;9.116;2023-02-08T10:11:01;99707.75;;;6.51;40.60
15489;BME280;7846;48.830;9.116;2023-02-08T10:19:30;99707.91;;;6.80;41.37
15489;BME280;7846;48.830;9.116;2023-02-08T10:22:20;99703.88;;;6.59;40.24
15489;BME280;7846;48.830;9.116;2023-02-08T10:27:31;99692.53;;;7.20;39.80
15489;BME280;7846;48.830;9.116;2023-02-08T10:30:13;99689.16;;;7.18;40.28
15489;BME280;7846;48.830;9.116;2023-02-08T10:33:02;99686.06;;;7.70;39.20
15489;BME280;7846;48.830;9.116;2023-02-08T10:35:36;99681.22;;;7.19;40.03
15489;BME280;7846;48.830;9.116;2023-02-08T10:38:25;99685.44;;;7.22;39.88
15489;BME280;7846;48.830;9.116;2023-02-08T10:40:57;99673.22;;;7.51;39.17
15489;BME280;7846;48.830;9.116;2023-02-08T10:43:41;99686.50;;;7.48;39.68
15489;BME280;7846;48.830;9.116;2023-02-08T10:46:19;99673.78;;;6.97;40.18
15489;BME280;7846;48.830;9.116;2023-02-08T10:49:05;99677.94;;;6.70;40.01
15489;BME280;7846;48.830;9.116;2023-02-08T10:51:32;99672.06;;;6.19;40.46
15489;BME280;7846;48.830;9.116;2023-02-08T10:53:58;99678.63;;;7.19;40.23
15489;BME280;7846;48.830;9.116;2023-02-08T10:58:55;99667.13;;;8.08;39.04
15489;BME280;7846;48.830;9.116;2023-02-08T11:01:21;99666.94;;;7.82;37.71
15489;BME280;7846;48.830;9.116;2023-02-08T11:04:16;99663.81;;;8.33;38.07
15489;BME280;7846;48.830;9.116;2023-02-08T11:06:43;99659.06;;;8.11;36.97
15489;BME280;7846;48.830;9.116;2023-02-08T11:09:23;99655.00;;;8.48;37.18
15489;BME280;7846;48.830;9.116;2023-02-08T11:11:50;99655.59;;;8.66;37.01
15489;BME280;7846;48.830;9.116;2023-02-08T11:14:28;99651.22;;;8.52;36.83
15489;BME280;7846;48.830;9.116;2023-02-08T11:16:57;99655.97;;;8.04;36.56
15489;BME280;7846;48.830;9.116;2023-02-08T11:19:33;99649.56;;;8.37;36.77
15489;BME280;7846;48.830;9.116;2023-02-08T11:22:00;99635.38;;;8.81;36.77
15489;BME280;7846;48.830;9.116;2023-02-08T11:24:33;99637.41;;;8.21;36.72
15489;BME280;7846;48.830;9.116;2023-02-08T11:32:41;99620.09;;;9.13;36.25
15489;BME280;7846;48.830;9.116;2023-02-08T11:35:20;99618.97;;;9.42;35.82
15489;BME280;7846;48.830;9.116;2023-02-08T11:37:55;99615.59;;;9.28;36.17
15489;BME280;7846;48.830;9.116;2023-02-08T11:40:27;99607.91;;;9.25;35.89
15489;BME280;7846;48.830;9.116;2023-02-08T11:42:54;99600.34;;;9.33;35.23
15489;BME280;7846;48.830;9.116;2023-02-08T11:45:23;99602.53;;;9.52;35.91
15489;BME280;7846;48.830;9.116;2023-02-08T11:47:50;99597.38;;;9.37;35.67
15489;BME280;7846;48.830;9.116;2023-02-08T11:50:37;99588.34;;;9.41;35.50
15489;BME280;7846;48.830;9.116;2023-02-08T11:53:16;99598.53;;;9.59;35.57
15489;BME280;7846;48.830;9.116;2023-02-08T11:56:00;99588.88;;;10.09;34.68
15489;BME280;7846;48.830;9.116;2023-02-08T11:58:27;99586.91;;;9.25;35.61
15489;BME280;7846;48.830;9.116;2023-02-08T12:01:08;99582.66;;;8.84;35.53
15489;BME280;7846;48.830;9.116;2023-02-08T12:03:40;99573.75;;;9.37;35.20
15489;BME280;7846;48.830;9.116;2023-02-08T12:09:18;99582.47;;;10.00;34.27
15489;BME280;7846;48.830;9.116;2023-02-08T12:11:51;99554.41;;;10.12;34.00
15489;BME280;7846;48.830;9.116;2023-02-08T12:14:40;99570.22;;;10.12;34.49
15489;BME280;7846;48.830;9.116;2023-02-08T12:17:34;99567.00;;;9.96;34.64
15489;BME280;7846;48.830;9.116;2023-02-08T12:23:05;99554.47;;;10.71;33.26
15489;BME280;7846;48.830;9.116;2023-02-08T12:28:21;99544.91;;;10.35;33.78
15489;BME280;7846;48.830;9.116;2023-02-08T12:30:56;99544.28;;;9.94;34.40
15489;BME280;7846;48.830;9.116;2023-02-08T12:33:38;99546.19;;;9.92;33.66
15489;BME280;7846;48.830;9.116;2023-02-08T12:36:19;99544.34;;;10.43;33.86
15489;BME280;7846;48.830;9.116;2023-02-08T12:39:04;99537.00;;;10.35;33.04
15489;BME280;7846;48.830;9.116;2023-02-08T12:42:14;99525.00;;;11.24;33.68
15489;BME280;7846;48.830;9.116;2023-02-08T12:56:20;99500.00;;;11.95;31.37
15489;BME280;7846;48.830;9.116;2023-02-08T12:58:51;99505.97;;;11.97;31.94
15489;BME280;7846;48.830;9.116;2023-02-08T13:01:33;99492.63;;;12.42;30.79
15489;BME280;7846;48.830;9.116;2023-02-08T13:04:10;99479.25;;;12.86;30.71
15489;BME280;7846;48.830;9.116;2023-02-08T13:06:40;99475.31;;;13.72;30.13
15489;BME280;7846;48.830;9.116;2023-02-08T13:09:41;99483.00;;;14.72;28.94
15489;BME280;7846;48.830;9.116;2023-02-08T13:12:28;99478.03;;;14.59;28.46
15489;BME280;7846;48.830;9.116;2023-02-08T13:15:14;99476.03;;;14.81;28.97
15489;BME280;7846;48.830;9.116;2023-02-08T13:17:44;99468.97;;;16.27;27.28
15489;BME280;7846;48.830;9.116;2023-02-08T13:20:24;99479.06;;;15.60;26.62
15489;BME280;7846;48.830;9.116;2023-02-08T13:22:52;99464.75;;;16.60;26.38
15489;BME280;7846;48.830;9.116;2023-02-08T13:25:28;99462.66;;;16.72;25.60
15489;BME280;7846;48.830;9.116;2023-02-08T13:27:54;99460.88;;;16.11;26.20
15489;BME280;7846;48.830;9.116;2023-02-08T13:30:21;99458.78;;;16.58;25.82
15489;BME280;7846;48.830;9.116;2023-02-08T13:32:48;99452.72;;;16.12;26.10
15489;BME280;7846;48.830;9.116;2023-02-08T13:35:18;99456.69;;;15.72;26.42
15489;BME280;7846;48.830;9.116;2023-02-08T13:37:55;99447.72;;;16.97;25.89
15489;BME280;7846;48.830;9.116;2023-02-08T13:40:28;99447.22;;;15.33;27.82
15489;BME280;7846;48.830;9.116;2023-02-08T13:43:23;99449.38;;;15.75;27.62
15489;BME280;7846;48.830;9.116;2023-02-08T13:45:51;99452.66;;;15.04;27.61
15489;BME280;7846;48.830;9.116;2023-02-08T13:48:18;99441.97;;;15.51;27.28
15489;BME280;7846;48.830;9.116;2023-02-08T13:50:49;99436.47;;;16.33;27.19
15489;BME280;7846;48.830;9.116;2023-02-08T13:53:16;99449.47;;;14.90;27.34
15489;BME280;7846;48.830;9.116;2023-02-08T13:55:56;99451.38;;;14.41;27.88
15489;BME280;7846;48.830;9.116;2023-02-08T13:58:35;99443.25;;;15.64;27.96
15489;BME280;7846;48.830;9.116;2023-02-08T14:01:20;99442.06;;;16.48;27.02
15489;BME280;7846;48.830;9.116;2023-02-08T14:06:56;99436.38;;;13.03;29.43
15489;BME280;7846;48.830;9.116;2023-02-08T14:09:45;99439.94;;;14.60;28.56
15489;BME280;7846;48.830;9.116;2023-02-08T14:12:25;99432.84;;;15.81;27.92
15489;BME280;7846;48.830;9.116;2023-02-08T14:15:27;99436.50;;;16.59;27.06
15489;BME280;7846;48.830;9.116;2023-02-08T14:17:53;99440.44;;;16.29;26.59
15489;BME280;7846;48.830;9.116;2023-02-08T14:20:32;99449.72;;;16.69;26.99
15489;BME280;7846;48.830;9.116;2023-02-08T14:23:01;99446.16;;;17.12;25.85
15489;BME280;7846;48.830;9.116;2023-02-08T14:25:40;99443.63;;;16.33;27.04